createdAt,value
2018-08-12T00:00:26.060Z,12.43
2018-08-12T00:01:12.061Z,12.25
2018-08-12T00:02:11.425Z,12.22
2018-08-12T00:03:12.061Z,12.21
2018-08-12T00:04:26.560Z,12.19
2018-08-12T00:05:12.561Z,12.25
2018-08-12T00:06:12.560Z,12.29
2018-08-12T00:07:12.560Z,12.37
2018-08-12T00:09:50.851Z,12.33
2018-08-12T00:11:05.854Z,12.23
2018-08-12T00:11:44.849Z,12.23
2018-08-12T00:12:44.849Z,12.21
2018-08-12T00:14:07.782Z,12.21
2018-08-12T00:15:06.371Z,12.36
2018-08-12T00:15:44.720Z,12.37
2018-08-12T00:17:06.349Z,12.36
2018-08-12T00:17:46.849Z,12.37
2018-08-12T00:18:45.849Z,12.44
2018-08-12T00:19:47.305Z,12.22
2018-08-12T00:20:45.852Z,12.23
2018-08-12T00:24:48.332Z,12.26
2018-08-12T00:25:51.027Z,12.15
2018-08-12T00:27:09.480Z,12.22
2018-08-12T00:29:21.225Z,12.15
2018-08-12T00:30:21.233Z,12.18
2018-08-12T00:31:21.233Z,12.13
2018-08-12T00:32:21.233Z,12.05
2018-08-12T00:33:21.732Z,12.07
2018-08-12T00:34:41.933Z,12.01
2018-08-12T00:35:21.732Z,12.00
2018-08-12T00:36:21.732Z,11.94
2018-08-12T00:37:21.732Z,11.90
2018-08-12T00:38:22.235Z,11.93
2018-08-12T00:39:22.232Z,12.04
2018-08-12T00:40:22.243Z,11.94
2018-08-12T00:41:22.229Z,12.04
2018-08-12T00:42:22.732Z,12.01
2018-08-12T00:43:22.737Z,11.90
2018-08-12T00:44:22.732Z,11.93
2018-08-12T00:45:22.732Z,11.85
2018-08-12T00:46:22.360Z,11.88
2018-08-12T00:47:23.232Z,11.77
2018-08-12T00:48:43.561Z,11.77
2018-08-12T00:49:23.229Z,11.77
2018-08-12T00:50:23.239Z,11.78
2018-08-12T00:51:24.666Z,11.74
2018-08-12T00:52:23.787Z,11.81
2018-08-12T00:53:23.731Z,11.72
2018-08-12T00:54:23.208Z,11.72
2018-08-12T00:55:24.231Z,11.79
2018-08-12T00:56:38.229Z,11.79
2018-08-12T00:57:44.583Z,11.79
2018-08-12T00:58:44.663Z,11.74
2018-08-12T00:59:47.736Z,11.93
2018-08-12T01:00:24.742Z,11.82
2018-08-12T01:01:24.731Z,11.98
2018-08-12T01:02:24.731Z,11.97
2018-08-12T01:03:24.225Z,11.94
2018-08-12T01:04:31.223Z,11.93
2018-08-12T01:05:39.232Z,12.04
2018-08-12T01:06:25.232Z,11.94
2018-08-12T01:07:31.231Z,12.04
2018-08-12T01:08:48.169Z,12.01
2018-08-12T01:09:48.733Z,12.08
2018-08-12T01:10:25.739Z,11.98
2018-08-12T01:11:25.741Z,11.98
2018-08-12T01:12:25.735Z,11.96
2018-08-12T01:13:26.230Z,11.97
2018-08-12T01:14:26.238Z,11.84
2018-08-12T01:15:26.230Z,11.82
2018-08-12T01:16:26.231Z,11.78
2018-08-12T01:17:26.731Z,11.78
2018-08-12T01:18:25.965Z,11.84
2018-08-12T01:19:26.730Z,11.90
2018-08-12T01:20:26.727Z,11.90
2018-08-12T01:21:27.235Z,11.84
2018-08-12T01:22:27.230Z,11.93
2018-08-12T01:23:27.230Z,11.85
2018-08-12T01:24:27.230Z,11.77
2018-08-12T01:25:27.733Z,11.78
2018-08-12T01:26:27.730Z,11.79
2018-08-12T01:27:27.729Z,11.82
2018-08-12T01:28:29.189Z,11.79
2018-08-12T01:29:27.286Z,11.81
2018-08-12T01:30:34.236Z,11.79
2018-08-12T01:31:48.464Z,11.74
2018-08-12T01:32:28.229Z,11.75
2018-08-12T01:33:28.230Z,11.77
2018-08-12T01:34:30.191Z,11.75
2018-08-12T01:35:30.184Z,11.82
2018-08-12T01:38:00.208Z,11.64
2018-08-12T01:38:59.566Z,11.59
2018-08-12T01:40:00.215Z,11.49
2018-08-12T01:41:23.716Z,11.49
2018-08-12T01:41:59.960Z,11.54
2018-08-12T01:43:21.715Z,11.46
2018-08-12T01:44:00.715Z,11.49
2018-08-12T01:45:22.215Z,11.42
2018-08-12T01:46:22.211Z,11.38
2018-08-12T01:47:23.188Z,11.39
2018-08-12T01:48:01.221Z,11.30
2018-08-12T01:49:00.809Z,11.38
2018-08-12T01:50:00.905Z,11.35
2018-08-12T01:51:01.004Z,11.30
2018-08-12T01:52:01.768Z,11.30
2018-08-12T01:53:01.714Z,11.30
2018-08-12T01:54:02.214Z,11.26
2018-08-12T01:55:02.215Z,11.28
2018-08-12T01:56:02.215Z,11.24
2018-08-12T01:57:02.212Z,11.26
2018-08-12T01:58:02.714Z,11.20
2018-08-12T01:59:01.944Z,11.27
2018-08-12T02:00:25.717Z,11.17
2018-08-12T02:01:02.715Z,11.13
2018-08-12T02:02:03.248Z,11.05
2018-08-12T02:03:03.214Z,11.06
2018-08-12T02:04:03.213Z,10.93
2018-08-12T02:05:03.237Z,10.98
2018-08-12T02:06:24.732Z,11.05
2018-08-12T02:08:35.073Z,11.03
2018-08-12T02:09:56.081Z,10.84
2018-08-12T02:10:34.572Z,10.91
2018-08-12T02:11:56.588Z,10.98
2018-08-12T02:12:34.802Z,10.91
2018-08-12T02:13:35.580Z,10.95
2018-08-12T02:14:35.580Z,10.98
2018-08-12T02:15:36.080Z,10.91
2018-08-12T02:16:39.516Z,10.86
2018-08-12T02:17:36.080Z,10.87
2018-08-12T02:18:36.080Z,10.81
2018-08-12T02:19:36.580Z,10.88
2018-08-12T02:21:03.579Z,10.87
2018-08-12T02:21:36.585Z,10.84
2018-08-12T02:24:29.190Z,10.93
2018-08-12T02:25:08.195Z,10.81
2018-08-12T02:26:10.199Z,10.94
2018-08-12T02:27:22.697Z,10.93
2018-08-12T02:28:08.696Z,10.93
2018-08-12T02:29:09.694Z,10.93
2018-08-12T02:30:08.701Z,10.93
2018-08-12T02:31:09.198Z,10.86
2018-08-12T02:34:07.572Z,10.93
2018-08-12T02:34:40.578Z,10.84
2018-08-12T02:35:40.577Z,10.72
2018-08-12T02:36:41.077Z,10.66
2018-08-12T02:39:12.454Z,10.47
2018-08-12T02:40:12.462Z,10.54
2018-08-12T02:41:12.460Z,10.55
2018-08-12T02:42:12.962Z,10.60
2018-08-12T02:43:12.184Z,10.55
2018-08-12T02:44:13.021Z,10.55
2018-08-12T02:45:12.961Z,10.69
2018-08-12T02:46:12.968Z,10.72
2018-08-12T02:47:13.462Z,10.72
2018-08-12T02:48:13.461Z,10.73
2018-08-12T02:49:13.502Z,10.66
2018-08-12T02:50:13.966Z,10.69
2018-08-12T02:51:13.063Z,10.68
2018-08-12T02:52:13.966Z,10.69
2018-08-12T02:53:13.960Z,10.72
2018-08-12T02:54:13.962Z,10.72
2018-08-12T02:55:14.470Z,10.68
2018-08-12T02:56:14.461Z,10.63
2018-08-12T02:57:14.460Z,10.73
2018-08-12T02:58:14.460Z,10.65
2018-08-12T02:59:14.960Z,10.69
2018-08-12T03:00:14.892Z,10.75
2018-08-12T03:01:14.959Z,10.63
2018-08-12T03:02:14.961Z,10.65
2018-08-12T03:03:15.461Z,10.68
2018-08-12T03:04:15.461Z,10.68
2018-08-12T03:05:15.460Z,10.65
2018-08-12T03:06:16.430Z,10.65
2018-08-12T03:07:36.960Z,10.75
2018-08-12T03:08:15.959Z,10.70
2018-08-12T03:09:15.307Z,10.72
2018-08-12T03:10:15.960Z,10.69
2018-08-12T03:11:16.463Z,10.54
2018-08-12T03:12:37.459Z,10.55
2018-08-12T03:13:16.459Z,10.49
2018-08-12T03:14:16.460Z,10.44
2018-08-12T03:15:16.969Z,10.47
2018-08-12T03:16:16.959Z,10.54
2018-08-12T03:17:16.306Z,10.47
2018-08-12T03:18:16.959Z,10.43
2018-08-12T03:19:17.459Z,10.34
2018-08-12T03:20:17.459Z,10.25
2018-08-12T03:21:17.456Z,10.25
2018-08-12T03:22:17.479Z,10.28
2018-08-12T03:23:17.960Z,10.22
2018-08-12T03:24:17.959Z,10.26
2018-08-12T03:26:49.451Z,10.36
2018-08-12T03:27:49.455Z,10.28
2018-08-12T03:28:49.454Z,10.22
2018-08-12T03:29:49.054Z,10.22
2018-08-12T03:30:49.141Z,10.13
2018-08-12T03:31:55.956Z,10.25
2018-08-12T03:32:49.961Z,10.20
2018-08-12T03:33:49.964Z,10.31
2018-08-12T03:34:49.561Z,10.26
2018-08-12T03:36:11.455Z,10.29
2018-08-12T03:36:50.460Z,10.20
2018-08-12T03:37:50.483Z,10.11
2018-08-12T03:38:50.077Z,10.26
2018-08-12T03:39:50.176Z,10.18
2018-08-12T03:41:04.960Z,10.09
2018-08-12T03:41:50.954Z,10.11
2018-08-12T03:43:11.954Z,10.09
2018-08-12T03:43:53.453Z,10.09
2018-08-12T03:45:12.454Z,10.09
2018-08-12T03:45:50.805Z,10.11
2018-08-12T03:47:11.875Z,10.02
2018-08-12T03:47:51.954Z,10.09
2018-08-12T03:48:51.982Z,10.14
2018-08-12T03:49:51.176Z,10.10
2018-08-12T03:50:51.954Z,10.20
2018-08-12T03:51:51.955Z,10.13
2018-08-12T03:53:14.452Z,10.09
2018-08-12T03:53:52.523Z,10.20
2018-08-12T03:54:51.754Z,10.16
2018-08-12T03:55:52.456Z,10.14
2018-08-12T03:56:51.927Z,10.22
2018-08-12T03:57:52.954Z,10.18
2018-08-12T03:58:52.175Z,10.16
2018-08-12T03:59:53.952Z,10.14
2018-08-12T04:00:52.956Z,10.17
2018-08-12T04:01:53.454Z,10.11
2018-08-12T04:02:53.456Z,10.01
2018-08-12T04:03:53.491Z,9.86
2018-08-12T04:04:52.965Z,9.75
2018-08-12T04:05:53.953Z,9.74
2018-08-12T04:07:14.953Z,9.85
2018-08-12T04:07:53.953Z,9.89
2018-08-12T04:08:53.952Z,9.85
2018-08-12T04:09:54.461Z,9.92
2018-08-12T04:11:15.455Z,9.89
2018-08-12T04:11:54.453Z,9.95
2018-08-12T04:13:15.453Z,9.92
2018-08-12T04:13:54.054Z,9.91
2018-08-12T04:14:54.956Z,9.96
2018-08-12T04:15:54.953Z,10.04
2018-08-12T04:16:54.952Z,10.02
2018-08-12T04:18:17.407Z,10.07
2018-08-12T04:18:56.415Z,10.06
2018-08-12T04:19:55.455Z,10.09
2018-08-12T04:20:55.464Z,10.20
2018-08-12T04:21:55.051Z,10.24
2018-08-12T04:22:58.445Z,10.20
2018-08-12T04:24:09.952Z,10.10
2018-08-12T04:24:55.958Z,10.16
2018-08-12T04:26:23.450Z,10.17
2018-08-12T04:28:29.322Z,10.07
2018-08-12T04:29:28.799Z,10.06
2018-08-12T04:30:27.829Z,10.14
2018-08-12T04:31:27.424Z,10.10
2018-08-12T04:32:28.328Z,10.07
2018-08-12T04:33:28.328Z,10.11
2018-08-12T04:34:28.328Z,10.22
2018-08-12T04:35:28.834Z,10.14
2018-08-12T04:36:28.831Z,10.24
2018-08-12T04:37:28.829Z,10.29
2018-08-12T04:38:28.309Z,10.28
2018-08-12T04:39:29.328Z,10.26
2018-08-12T04:40:36.326Z,10.26
2018-08-12T04:41:29.328Z,10.22
2018-08-12T04:42:29.328Z,10.17
2018-08-12T04:43:49.904Z,10.25
2018-08-12T04:44:29.824Z,10.29
2018-08-12T04:45:43.829Z,10.26
2018-08-12T04:46:29.834Z,10.35
2018-08-12T04:47:31.831Z,10.42
2018-08-12T04:48:36.327Z,10.38
2018-08-12T04:49:50.528Z,10.47
2018-08-12T04:50:30.329Z,10.55
2018-08-12T04:51:30.370Z,10.65
2018-08-12T04:52:29.798Z,10.58
2018-08-12T04:53:44.827Z,10.68
2018-08-12T04:54:51.027Z,10.72
2018-08-12T04:55:51.109Z,10.66
2018-08-12T04:56:57.827Z,10.73
2018-08-12T04:57:30.826Z,10.66
2018-08-12T05:00:24.568Z,10.65
2018-08-12T05:01:16.570Z,10.65
2018-08-12T05:02:23.567Z,10.66
2018-08-12T05:03:09.142Z,10.62
2018-08-12T05:04:24.066Z,10.65
2018-08-12T05:05:03.081Z,10.65
2018-08-12T05:06:02.539Z,10.70
2018-08-12T05:07:24.564Z,10.63
2018-08-12T05:08:17.569Z,10.72
2018-08-12T05:09:03.569Z,10.76
2018-08-12T05:10:03.569Z,10.83
2018-08-12T05:11:05.067Z,10.73
2018-08-12T05:12:04.078Z,10.78
2018-08-12T05:13:04.079Z,10.91
2018-08-12T05:14:03.551Z,10.90
2018-08-12T05:15:06.569Z,10.94
2018-08-12T05:16:18.568Z,10.95
2018-08-12T05:17:04.568Z,10.83
2018-08-12T05:18:04.565Z,10.99
2018-08-12T05:19:06.534Z,11.02
2018-08-12T05:20:05.068Z,10.91
2018-08-12T05:21:06.506Z,10.98
2018-08-12T05:22:06.040Z,10.95
2018-08-12T05:23:05.568Z,11.03
2018-08-12T05:24:05.572Z,11.11
2018-08-12T05:25:19.567Z,11.12
2018-08-12T05:26:05.568Z,11.13
2018-08-12T05:27:27.069Z,11.20
2018-08-12T05:28:07.066Z,11.24
2018-08-12T05:29:29.066Z,11.27
2018-08-12T05:31:58.726Z,11.23
2018-08-12T05:32:37.731Z,11.26
2018-08-12T05:33:58.727Z,11.35
2018-08-12T05:34:38.233Z,11.31
2018-08-12T05:35:39.688Z,11.39
2018-08-12T05:36:37.535Z,11.36
2018-08-12T05:37:38.226Z,11.42
2018-08-12T05:38:38.226Z,11.45
2018-08-12T05:39:58.804Z,11.46
2018-08-12T05:40:40.181Z,11.45
2018-08-12T05:42:01.193Z,11.45
2018-08-12T05:42:39.692Z,11.49
2018-08-12T05:46:41.851Z,11.62
2018-08-12T05:47:41.858Z,11.60
2018-08-12T05:48:41.855Z,11.72
2018-08-12T05:49:41.454Z,11.74
2018-08-12T05:51:09.379Z,11.82
2018-08-12T05:51:42.359Z,11.77
2018-08-12T05:52:42.360Z,11.77
2018-08-12T05:53:41.955Z,11.88
2018-08-12T05:54:42.859Z,11.85
2018-08-12T05:55:42.860Z,11.97
2018-08-12T05:56:42.857Z,11.97
2018-08-12T05:57:46.356Z,12.03
2018-08-12T05:59:06.298Z,12.05
2018-08-12T05:59:46.290Z,12.03
2018-08-12T06:00:42.696Z,12.12
2018-08-12T06:02:05.355Z,12.11
2018-08-12T06:02:43.014Z,12.16
2018-08-12T06:03:49.857Z,12.23
2018-08-12T06:04:44.816Z,12.26
2018-08-12T06:05:43.858Z,12.34
2018-08-12T06:06:43.856Z,12.38
2018-08-12T06:07:44.365Z,12.56
2018-08-12T06:09:05.361Z,12.66
2018-08-12T06:09:44.356Z,12.66
2018-08-12T06:10:43.830Z,12.70
2018-08-12T06:11:46.859Z,12.71
2018-08-12T06:12:44.856Z,12.79
2018-08-12T06:13:44.470Z,12.84
2018-08-12T06:14:44.866Z,12.94
2018-08-12T06:15:45.357Z,13.01
2018-08-12T06:16:45.356Z,13.06
2018-08-12T06:17:45.357Z,13.19
2018-08-12T06:18:45.556Z,13.24
2018-08-12T06:19:51.869Z,13.31
2018-08-12T06:20:45.857Z,13.35
2018-08-12T06:22:00.852Z,13.41
2018-08-12T06:22:45.856Z,13.51
2018-08-12T06:23:46.363Z,13.68
2018-08-12T06:24:46.358Z,13.73
2018-08-12T06:25:45.780Z,13.76
2018-08-12T06:26:47.355Z,13.83
2018-08-12T06:27:45.949Z,13.94
2018-08-12T06:28:47.854Z,14.05
2018-08-12T06:29:48.802Z,14.08
2018-08-12T06:30:46.859Z,14.17
2018-08-12T06:31:48.789Z,14.23
2018-08-12T06:32:47.359Z,14.36
2018-08-12T06:33:47.365Z,14.38
2018-08-12T06:34:46.837Z,14.52
2018-08-12T06:37:19.103Z,14.53
2018-08-12T06:38:19.109Z,14.66
2018-08-12T06:39:19.109Z,14.75
2018-08-12T06:40:42.610Z,14.74
2018-08-12T06:41:19.610Z,14.87
2018-08-12T06:42:25.611Z,14.91
2018-08-12T06:43:19.613Z,14.97
2018-08-12T06:44:19.208Z,14.98
2018-08-12T06:45:41.110Z,15.03
2018-08-12T06:46:20.137Z,15.11
2018-08-12T06:47:20.116Z,15.16
2018-08-12T06:48:20.610Z,15.22
2018-08-12T06:49:20.610Z,15.33
2018-08-12T06:50:19.987Z,15.46
2018-08-12T06:51:20.610Z,15.46
2018-08-12T06:52:22.071Z,15.52
2018-08-12T06:53:44.110Z,15.56
2018-08-12T06:54:21.109Z,15.41
2018-08-12T06:55:42.110Z,15.67
2018-08-12T06:56:21.634Z,15.55
2018-08-12T06:57:22.569Z,15.68
2018-08-12T06:58:20.952Z,15.74
2018-08-12T06:59:21.609Z,15.85
2018-08-12T07:00:21.091Z,15.93
2018-08-12T07:01:42.170Z,15.98
2018-08-12T07:02:22.109Z,16.04
2018-08-12T07:03:22.111Z,16.25
2018-08-12T07:04:22.109Z,16.22
2018-08-12T07:05:22.113Z,16.36
2018-08-12T07:06:22.609Z,16.41
2018-08-12T07:07:21.838Z,16.40
2018-08-12T07:08:22.612Z,16.52
2018-08-12T07:09:22.609Z,16.52
2018-08-12T07:10:23.111Z,16.54
2018-08-12T07:11:24.113Z,16.62
2018-08-12T07:12:24.107Z,16.67
2018-08-12T07:13:23.115Z,16.66
2018-08-12T07:14:23.648Z,16.82
2018-08-12T07:15:23.541Z,16.95
2018-08-12T07:16:23.614Z,17.06
2018-08-12T07:17:23.609Z,16.96
2018-08-12T07:18:24.109Z,17.06
2018-08-12T07:19:24.109Z,17.12
2018-08-12T07:20:24.110Z,17.24
2018-08-12T07:21:24.108Z,17.30
2018-08-12T07:22:27.041Z,17.36
2018-08-12T07:23:24.608Z,17.49
2018-08-12T07:24:24.616Z,17.45
2018-08-12T07:25:24.607Z,17.70
2018-08-12T07:26:25.109Z,17.77
2018-08-12T07:27:25.114Z,17.94
2018-08-12T07:28:25.108Z,18.04
2018-08-12T07:29:25.109Z,18.16
2018-08-12T07:30:25.609Z,18.31
2018-08-12T07:31:26.617Z,18.38
2018-08-12T07:32:25.609Z,18.51
2018-08-12T07:33:25.139Z,18.57
2018-08-12T07:36:19.797Z,18.78
2018-08-12T07:37:18.364Z,18.78
2018-08-12T07:37:56.840Z,18.87
2018-08-12T07:39:20.326Z,18.91
2018-08-12T07:39:57.054Z,19.16
2018-08-12T07:40:57.881Z,19.23
2018-08-12T07:41:57.866Z,19.28
2018-08-12T07:42:57.869Z,19.30
2018-08-12T07:43:58.366Z,19.34
2018-08-12T07:44:57.604Z,19.39
2018-08-12T07:45:57.704Z,19.46
2018-08-12T07:46:58.364Z,19.55
2018-08-12T07:47:58.865Z,19.49
2018-08-12T07:48:58.866Z,19.58
2018-08-12T07:49:58.266Z,19.50
2018-08-12T07:50:58.366Z,19.64
2018-08-12T07:53:44.625Z,19.71
2018-08-12T07:54:30.633Z,19.82
2018-08-12T07:55:32.568Z,19.80
2018-08-12T07:56:51.203Z,19.87
2018-08-12T07:57:31.135Z,19.94
2018-08-12T07:58:53.131Z,19.98
2018-08-12T07:59:30.484Z,20.12
2018-08-12T08:00:52.134Z,20.15
2018-08-12T08:01:45.632Z,20.10
2018-08-12T08:02:31.633Z,20.07
2018-08-12T08:03:31.636Z,20.17
2018-08-12T08:04:31.634Z,20.25
2018-08-12T08:05:32.142Z,20.34
2018-08-12T08:06:32.133Z,20.27
2018-08-12T08:07:31.485Z,20.25
2018-08-12T08:08:32.133Z,20.37
2018-08-12T08:09:52.715Z,20.48
2018-08-12T08:10:32.633Z,20.58
2018-08-12T08:13:03.448Z,20.78
2018-08-12T08:14:04.188Z,20.81
2018-08-12T08:15:04.193Z,20.88
2018-08-12T08:16:31.691Z,20.94
2018-08-12T08:17:25.691Z,21.05
2018-08-12T08:18:27.623Z,21.11
2018-08-12T08:19:04.698Z,21.18
2018-08-12T08:20:05.191Z,21.38
2018-08-12T08:21:04.418Z,21.51
2018-08-12T08:22:11.191Z,21.61
2018-08-12T08:23:05.191Z,21.66
2018-08-12T08:24:04.793Z,21.71
2018-08-12T08:25:26.759Z,21.68
2018-08-12T08:26:05.691Z,21.81
2018-08-12T08:27:05.170Z,21.86
2018-08-12T08:28:06.195Z,21.90
2018-08-12T08:29:27.195Z,21.91
2018-08-12T08:30:06.191Z,22.01
2018-08-12T08:31:27.225Z,22.11
2018-08-12T08:32:26.777Z,22.24
2018-08-12T08:33:12.691Z,22.30
2018-08-12T08:34:27.691Z,22.36
2018-08-12T08:35:06.690Z,22.42
2018-08-12T08:37:38.440Z,22.69
2018-08-12T08:40:24.451Z,22.88
2018-08-12T08:41:30.786Z,22.91
2018-08-12T08:42:31.458Z,22.96
2018-08-12T08:43:11.894Z,22.91
2018-08-12T08:44:31.953Z,22.99
2018-08-12T08:45:37.959Z,23.16
2018-08-12T08:47:41.612Z,23.09
2018-08-12T08:48:42.356Z,23.09
2018-08-12T08:49:42.358Z,23.21
2018-08-12T08:50:42.915Z,23.26
2018-08-12T08:51:42.091Z,23.35
2018-08-12T08:52:42.858Z,23.21
2018-08-12T08:53:42.855Z,23.26
2018-08-12T08:54:43.355Z,23.32
2018-08-12T08:56:04.400Z,23.41
2018-08-12T08:56:43.369Z,23.49
2018-08-12T08:57:43.355Z,23.68
2018-08-12T08:58:43.856Z,23.56
2018-08-12T08:59:57.861Z,23.60
2018-08-12T09:00:43.856Z,23.62
2018-08-12T09:01:43.856Z,23.71
2018-08-12T09:02:43.459Z,23.72
2018-08-12T09:03:44.382Z,23.79
2018-08-12T09:04:46.356Z,23.63
2018-08-12T09:05:44.356Z,23.71
2018-08-12T09:06:44.356Z,23.74
2018-08-12T09:07:50.875Z,23.75
2018-08-12T09:08:44.396Z,23.71
2018-08-12T09:09:44.856Z,23.79
2018-08-12T09:10:44.856Z,23.92
2018-08-12T09:11:45.356Z,23.99
2018-08-12T09:12:45.355Z,24.05
2018-08-12T09:13:45.361Z,24.18
2018-08-12T09:14:45.357Z,24.19
2018-08-12T09:15:45.857Z,24.27
2018-08-12T09:16:45.860Z,24.41
2018-08-12T09:17:45.214Z,24.49
2018-08-12T09:18:45.857Z,24.52
2018-08-12T09:19:46.356Z,24.46
2018-08-12T09:20:46.357Z,24.60
2018-08-12T09:21:46.357Z,24.67
2018-08-12T09:22:46.352Z,24.71
2018-08-12T09:23:52.876Z,24.82
2018-08-12T09:24:46.856Z,24.64
2018-08-12T09:25:46.210Z,24.67
2018-08-12T09:26:46.857Z,24.75
2018-08-12T09:27:47.357Z,24.79
2018-08-12T09:28:47.357Z,24.93
2018-08-12T09:29:47.357Z,24.92
2018-08-12T09:30:47.858Z,24.98
2018-08-12T09:31:47.857Z,24.98
2018-08-12T09:34:40.293Z,25.07
2018-08-12T09:35:20.687Z,25.08
2018-08-12T09:36:19.260Z,25.22
2018-08-12T09:37:39.841Z,25.38
2018-08-12T09:38:19.755Z,25.46
2018-08-12T09:39:19.755Z,25.39
2018-08-12T09:40:19.755Z,25.42
2018-08-12T09:41:21.690Z,25.48
2018-08-12T09:42:40.472Z,25.59
2018-08-12T09:43:20.253Z,25.63
2018-08-12T09:44:20.253Z,25.67
2018-08-12T09:45:22.762Z,25.48
2018-08-12T09:46:41.757Z,25.45
2018-08-12T09:47:41.755Z,25.45
2018-08-12T09:48:20.236Z,25.56
2018-08-12T09:49:42.256Z,25.56
2018-08-12T09:50:42.187Z,25.63
2018-08-12T09:51:42.382Z,25.59
2018-08-12T09:52:42.265Z,25.63
2018-08-12T09:53:44.759Z,25.75
2018-08-12T09:54:21.764Z,25.72
2018-08-12T09:55:23.188Z,25.89
2018-08-12T09:56:21.231Z,26.03
2018-08-12T09:57:24.256Z,26.09
2018-08-12T09:58:37.254Z,26.19
2018-08-12T09:59:42.594Z,26.16
2018-08-12T10:00:22.410Z,26.17
2018-08-12T10:01:42.840Z,26.34
2018-08-12T10:02:22.757Z,26.38
2018-08-12T10:03:22.754Z,26.42
2018-08-12T10:04:23.688Z,26.38
2018-08-12T10:05:23.258Z,26.24
2018-08-12T10:06:23.257Z,26.21
2018-08-12T10:07:37.333Z,25.91
2018-08-12T10:08:23.257Z,25.89
2018-08-12T10:09:23.754Z,26.00
2018-08-12T10:10:23.755Z,26.08
2018-08-12T10:11:23.788Z,26.19
2018-08-12T10:12:44.764Z,26.21
2018-08-12T10:13:23.366Z,26.24
2018-08-12T10:14:25.216Z,26.35
2018-08-12T10:15:24.303Z,26.29
2018-08-12T10:16:24.259Z,26.34
2018-08-12T10:17:45.757Z,26.41
2018-08-12T10:18:24.758Z,26.31
2018-08-12T10:19:24.760Z,26.44
2018-08-12T10:20:24.762Z,26.29
2018-08-12T10:21:25.284Z,26.29
2018-08-12T10:22:25.255Z,26.19
2018-08-12T10:23:25.259Z,26.13
2018-08-12T10:24:25.262Z,26.12
2018-08-12T10:25:25.758Z,26.13
2018-08-12T10:26:25.759Z,26.17
2018-08-12T10:27:25.759Z,26.28
2018-08-12T10:28:25.759Z,26.41
2018-08-12T10:29:27.197Z,26.54
2018-08-12T10:30:27.690Z,26.59
2018-08-12T10:31:25.645Z,26.57
2018-08-12T10:32:26.265Z,26.60
2018-08-12T10:33:26.759Z,26.50
2018-08-12T10:34:27.691Z,26.64
2018-08-12T10:35:26.764Z,26.60
2018-08-12T10:36:26.759Z,26.72
2018-08-12T10:37:27.259Z,26.76
2018-08-12T10:38:27.281Z,26.68
2018-08-12T10:39:26.637Z,26.79
2018-08-12T10:40:27.259Z,26.79
2018-08-12T10:41:41.759Z,26.86
2018-08-12T10:42:27.759Z,27.02
2018-08-12T10:43:27.759Z,26.93
2018-08-12T10:44:27.811Z,26.98
2018-08-12T10:45:29.698Z,27.09
2018-08-12T10:46:28.259Z,27.20
2018-08-12T10:47:29.192Z,27.18
2018-08-12T10:48:27.611Z,27.16
2018-08-12T10:49:29.692Z,27.35
2018-08-12T10:50:29.700Z,27.31
2018-08-12T10:51:29.700Z,27.42
2018-08-12T10:52:28.766Z,27.40
2018-08-12T10:53:28.760Z,27.55
2018-08-12T10:54:28.372Z,27.69
2018-08-12T10:55:29.264Z,27.61
2018-08-12T10:56:29.268Z,27.72
2018-08-12T10:57:30.281Z,27.86
2018-08-12T10:58:43.761Z,27.78
2018-08-12T10:59:29.885Z,27.63
2018-08-12T11:00:29.761Z,27.59
2018-08-12T11:01:51.758Z,27.55
2018-08-12T11:04:22.519Z,27.48
2018-08-12T11:05:01.527Z,27.52
2018-08-12T11:06:01.524Z,27.71
2018-08-12T11:08:33.311Z,27.78
2018-08-12T11:09:32.674Z,27.81
2018-08-12T11:10:33.319Z,27.91
2018-08-12T11:13:05.089Z,28.28
2018-08-12T11:14:05.097Z,28.32
2018-08-12T11:15:05.097Z,28.35
2018-08-12T11:16:05.592Z,28.35
2018-08-12T11:17:05.600Z,28.45
2018-08-12T11:18:05.602Z,28.40
2018-08-12T11:19:05.596Z,28.38
2018-08-12T11:20:15.098Z,28.42
2018-08-12T11:21:20.097Z,28.54
2018-08-12T11:22:06.096Z,28.58
2018-08-12T11:23:06.096Z,28.70
2018-08-12T11:24:27.599Z,28.76
2018-08-12T11:25:27.596Z,28.72
2018-08-12T11:26:27.597Z,28.70
2018-08-12T11:27:06.595Z,28.77
2018-08-12T11:28:06.199Z,28.85
2018-08-12T11:29:28.104Z,28.87
2018-08-12T11:30:10.031Z,28.72
2018-08-12T11:31:07.097Z,28.74
2018-08-12T11:32:08.531Z,28.91
2018-08-12T11:33:28.614Z,28.83
2018-08-12T11:34:09.029Z,29.02
2018-08-12T11:35:07.598Z,29.17
2018-08-12T11:36:08.550Z,29.35
2018-08-12T11:37:08.098Z,29.49
2018-08-12T11:41:31.918Z,30.49
2018-08-12T11:42:34.856Z,30.66
2018-08-12T11:43:31.924Z,30.88
2018-08-12T11:44:32.424Z,31.23
2018-08-12T11:45:10.659Z,31.49
2018-08-12T11:46:17.422Z,31.50
2018-08-12T11:47:31.997Z,31.76
2018-08-12T11:48:32.009Z,31.68
2018-08-12T11:49:38.929Z,31.90
2018-08-12T11:50:11.281Z,32.12
2018-08-12T11:51:32.925Z,32.41
2018-08-12T11:52:33.423Z,32.77
2018-08-12T11:53:34.401Z,33.02
2018-08-12T11:54:12.388Z,33.15
2018-08-12T11:55:13.896Z,33.31
2018-08-12T11:56:14.924Z,33.38
2018-08-12T11:57:33.927Z,33.72
2018-08-12T11:58:33.941Z,33.70
2018-08-12T11:59:33.926Z,33.92
2018-08-12T12:01:43.983Z,34.09
2018-08-12T12:02:44.744Z,33.89
2018-08-12T12:03:44.223Z,34.16
2018-08-12T12:04:45.219Z,34.37
2018-08-12T12:05:45.214Z,34.81
2018-08-12T12:06:44.583Z,34.88
2018-08-12T12:07:45.215Z,34.86
2018-08-12T12:08:45.720Z,34.81
2018-08-12T12:09:45.716Z,34.28
2018-08-12T12:10:45.784Z,33.99
2018-08-12T12:11:45.717Z,33.86
2018-08-12T12:12:46.214Z,33.79
2018-08-12T12:13:46.215Z,34.11
2018-08-12T12:14:46.217Z,34.33
2018-08-12T12:15:45.708Z,34.40
2018-08-12T12:16:52.713Z,34.58
2018-08-12T12:17:46.715Z,34.81
2018-08-12T12:18:46.715Z,34.90
2018-08-12T12:19:47.215Z,34.84
2018-08-12T12:20:47.647Z,34.94
2018-08-12T12:21:47.221Z,35.00
2018-08-12T12:22:47.222Z,35.09
2018-08-12T12:23:47.213Z,35.28
2018-08-12T12:24:46.837Z,35.64
2018-08-12T12:26:08.808Z,35.76
2018-08-12T12:26:47.714Z,35.89
2018-08-12T12:27:47.714Z,35.59
2018-08-12T12:30:19.505Z,36.23
2018-08-12T12:31:19.511Z,36.27
2018-08-12T12:32:19.512Z,36.06
2018-08-12T12:34:20.011Z,35.87
2018-08-12T12:35:20.012Z,35.99
2018-08-12T12:36:41.510Z,35.99
2018-08-12T12:37:20.511Z,36.13
2018-08-12T12:38:26.536Z,36.25
2018-08-12T12:39:34.513Z,36.67
2018-08-12T12:40:20.516Z,36.94
2018-08-12T12:41:21.011Z,36.90
2018-08-12T12:42:27.018Z,37.20
2018-08-12T12:43:21.010Z,37.08
2018-08-12T12:44:21.010Z,36.87
2018-08-12T12:45:27.511Z,36.67
2018-08-12T12:46:20.756Z,37.06
2018-08-12T12:47:35.509Z,37.18
2018-08-12T12:48:24.010Z,36.90
2018-08-12T12:49:43.019Z,36.77
2018-08-12T12:50:22.080Z,36.46
2018-08-12T12:51:22.010Z,36.79
2018-08-12T12:52:22.011Z,36.82
2018-08-12T12:53:45.941Z,36.75
2018-08-12T12:54:22.509Z,36.82
2018-08-12T12:55:43.509Z,36.62
2018-08-12T12:56:22.549Z,36.23
2018-08-12T12:57:23.982Z,36.25
2018-08-12T12:58:23.964Z,36.22
2018-08-12T12:59:44.010Z,36.41
2018-08-12T13:00:23.955Z,36.33
2018-08-12T13:01:44.509Z,36.49
2018-08-12T13:02:44.513Z,36.11
2018-08-12T13:03:23.509Z,35.95
2018-08-12T13:04:23.509Z,35.85
2018-08-12T13:05:24.008Z,36.21
2018-08-12T13:06:24.017Z,36.74
2018-08-12T13:07:24.004Z,36.83
2018-08-12T13:08:24.007Z,37.20
2018-08-12T13:09:45.514Z,37.13
2018-08-12T13:10:24.508Z,37.31
2018-08-12T13:11:23.885Z,37.54
2018-08-12T13:12:24.588Z,37.56
2018-08-12T13:13:25.011Z,37.66
2018-08-12T13:14:25.017Z,37.59
2018-08-12T13:15:25.008Z,37.62
2018-08-12T13:16:25.007Z,36.87
2018-08-12T13:17:25.514Z,37.04
2018-08-12T13:18:25.519Z,37.35
2018-08-12T13:19:46.508Z,37.45
2018-08-12T13:20:25.530Z,37.62
2018-08-12T13:21:26.012Z,37.62
2018-08-12T13:22:26.016Z,37.11
2018-08-12T13:23:25.385Z,37.08
2018-08-12T13:24:26.007Z,37.40
2018-08-12T13:25:26.510Z,37.42
2018-08-12T13:26:47.510Z,37.02
2018-08-12T13:27:26.501Z,36.83
2018-08-12T13:28:26.507Z,37.15
2018-08-12T13:29:26.124Z,37.58
2018-08-12T13:30:48.006Z,37.38
2018-08-12T13:31:27.005Z,37.70
2018-08-12T13:32:27.006Z,37.62
2018-08-12T13:33:27.503Z,37.95
2018-08-12T13:34:47.774Z,38.07
2018-08-12T13:35:27.506Z,37.62
2018-08-12T13:36:27.507Z,37.27
2018-08-12T13:38:58.628Z,37.40
2018-08-12T13:39:58.746Z,37.56
2018-08-12T13:41:05.838Z,37.60
2018-08-12T13:41:58.956Z,37.60
2018-08-12T13:43:02.771Z,37.68